Airfield :
LOGIN :

Register | Disclaimer

   EN    FR    IT 

 










Legend :    VFR   Marginal VFR   IFR   Intensive IFR   Very Intensive IFR
Visi :
Ceiling :
>= 8 km
>= 3000ft
5 to 8 km
1000 to 3000 ft
1500m to 5 km
500 to 1000 ft
800 to 1500m
200 to 500 ft
< 800m
< 200 ft
Symbols :   Thunderstorms  Fog  Heavy snow  Heavy precipitations  Wind > 20 kt
SIGMETs :     Misc.  Thunderstorms  Icing  Turbulence  Mountain Waves  Volcanic Ashes







- Airport Elevation : 126 ft
- IATA code : WIC
- Download approach charts


EGPC - Wick

CURRENT METAR :
  • 231320Z 32016KT 9999 FEW037 11/04 Q1019

EXPIRED METARs :
  • 231250Z AUTO 33016KT 9999 SCT037/// 11/04 Q1019
  • 231220Z AUTO 32012KT 9999 SCT032/// 11/05 Q1019
  • 231150Z AUTO 33012KT 9999 FEW022/// 10/05 Q1018
  • 231120Z AUTO 30011KT 9999 SCT040/// 10/07 Q1018
  • 231050Z AUTO 29011KT 9999 FEW030/// 09/07 Q1018

TAF TAF EGPC
Valid from the 23 at 12:00 until the 23 at 21:00 UTC


231056Z 2312/2321 29012KT 9999 SCT025
PROB30
TEMPO 2312/2321 30015G25KT 6000 SHRA
ATIS : +44 1955 607 596
No reported NOTAMs for that airfield.



MET'MAP, your aeronautical weather chart ! - Copyright ORBIFLY December 2007 - Disclaimer

ORBIFLY MET'MAP TEAM :

Programming & Development : Alexandra Zaïnal
Concept & Development : Baudouin d'Aumeries
Co-Development & Prog : Marc-Olivier Méhu
Technical & hardware support : Manuel Goepfert

Contact : metmap@orbifly.com




SOURCES & CREDITS :

   NOAA